createdAt,value
2018-07-26T00:01:33.806Z,56.71
2018-07-26T00:04:00.572Z,57.31
2018-07-26T00:06:27.324Z,57.24
2018-07-26T00:08:54.099Z,56.57
2018-07-26T00:11:20.868Z,56.48
2018-07-26T00:13:47.623Z,56.43
2018-07-26T00:16:14.368Z,57.29
2018-07-26T00:18:41.138Z,58.08
2018-07-26T00:21:07.902Z,57.80
2018-07-26T00:23:34.635Z,58.70
2018-07-26T00:26:01.955Z,58.23
2018-07-26T00:28:28.741Z,59.02
2018-07-26T00:30:55.496Z,58.23
2018-07-26T00:33:22.224Z,58.72
2018-07-26T00:35:48.975Z,58.66
2018-07-26T00:38:15.718Z,58.37
2018-07-26T00:40:43.146Z,58.59
2018-07-26T00:43:09.871Z,58.01
2018-07-26T00:45:36.655Z,58.14
2018-07-26T00:48:03.525Z,57.93
2018-07-26T00:50:30.304Z,57.49
2018-07-26T00:52:57.024Z,58.23
2018-07-26T00:55:23.791Z,57.42
2018-07-26T00:57:50.523Z,57.54
2018-07-26T01:00:17.299Z,57.73
2018-07-26T01:02:44.056Z,57.90
2018-07-26T01:05:10.796Z,57.93
2018-07-26T01:07:37.559Z,57.18
2018-07-26T01:10:05.539Z,56.80
2018-07-26T01:12:32.313Z,56.75
2018-07-26T01:14:59.060Z,57.00
2018-07-26T01:17:25.812Z,56.78
2018-07-26T01:19:52.576Z,57.81
2018-07-26T01:22:19.346Z,57.69
2018-07-26T01:24:46.096Z,57.27
2018-07-26T01:27:12.891Z,58.19
2018-07-26T01:29:39.660Z,57.50
2018-07-26T01:32:06.435Z,57.46
2018-07-26T01:34:33.170Z,57.82
2018-07-26T01:36:59.936Z,57.47
2018-07-26T01:39:26.679Z,57.54
2018-07-26T01:41:53.483Z,57.67
2018-07-26T01:44:21.892Z,57.46
2018-07-26T01:46:48.651Z,57.12
2018-07-26T01:49:15.473Z,57.56
2018-07-26T01:51:42.211Z,57.81
2018-07-26T01:54:08.990Z,57.98
2018-07-26T01:56:35.718Z,57.02
2018-07-26T01:59:03.095Z,57.96
2018-07-26T02:01:29.892Z,57.48
2018-07-26T02:03:56.671Z,57.49
2018-07-26T02:06:23.415Z,58.04
2018-07-26T02:08:50.167Z,58.15
2018-07-26T02:11:16.911Z,58.03
2018-07-26T02:13:43.689Z,57.38
2018-07-26T02:16:10.424Z,57.70
2018-07-26T02:18:37.204Z,57.20
2018-07-26T02:21:03.962Z,57.43
2018-07-26T02:23:30.829Z,57.18
2018-07-26T02:25:57.564Z,56.94
2018-07-26T02:28:24.777Z,57.24
2018-07-26T02:30:51.568Z,57.51
2018-07-26T02:33:18.229Z,56.97
2018-07-26T02:35:45.036Z,56.30
2018-07-26T02:38:11.792Z,57.02
2018-07-26T02:40:38.672Z,57.60
2018-07-26T02:43:05.912Z,57.85
2018-07-26T02:45:32.773Z,57.51
2018-07-26T02:47:59.565Z,58.24
2018-07-26T02:50:26.342Z,58.47
2018-07-26T02:52:53.127Z,57.98
2018-07-26T02:55:19.895Z,58.60
2018-07-26T02:57:46.646Z,59.34
2018-07-26T03:00:13.420Z,59.21
2018-07-26T03:02:40.149Z,58.61
2018-07-26T03:05:07.727Z,59.02
2018-07-26T03:07:34.471Z,58.04
2018-07-26T03:10:01.976Z,58.29
2018-07-26T03:12:28.796Z,59.24
2018-07-26T03:14:55.835Z,59.15
2018-07-26T03:17:22.573Z,59.12
2018-07-26T03:19:49.339Z,58.17
2018-07-26T03:22:16.102Z,58.62
2018-07-26T03:24:42.932Z,58.97
2018-07-26T03:27:09.738Z,58.68
2018-07-26T03:29:36.743Z,58.86
2018-07-26T03:32:03.567Z,58.55
2018-07-26T03:34:30.313Z,59.15
2018-07-26T03:36:57.076Z,58.25
2018-07-26T03:39:23.811Z,58.20
2018-07-26T03:41:50.607Z,57.83
2018-07-26T03:44:17.354Z,57.79
2018-07-26T03:46:44.384Z,58.27
2018-07-26T03:49:11.243Z,58.57
2018-07-26T03:51:38.011Z,58.41
2018-07-26T03:54:05.004Z,57.90
2018-07-26T03:56:31.819Z,57.28
2018-07-26T03:58:58.559Z,57.64
2018-07-26T04:01:25.288Z,57.24
2018-07-26T04:03:52.076Z,58.17
2018-07-26T04:06:18.859Z,57.92
2018-07-26T04:08:45.622Z,57.03
2018-07-26T04:11:12.371Z,56.85
2018-07-26T04:13:39.157Z,56.37
2018-07-26T04:16:05.904Z,56.45
2018-07-26T04:18:32.763Z,55.88
2018-07-26T04:20:59.539Z,56.01
2018-07-26T04:23:26.309Z,56.39
2018-07-26T04:25:53.107Z,57.16
2018-07-26T04:28:19.908Z,56.35
2018-07-26T04:30:46.647Z,55.92
2018-07-26T04:33:13.412Z,56.08
2018-07-26T04:35:40.153Z,55.68
2018-07-26T04:38:06.931Z,55.73
2018-07-26T04:40:34.109Z,56.21
2018-07-26T04:43:00.884Z,55.88
2018-07-26T04:45:27.635Z,56.40
2018-07-26T04:47:54.353Z,56.01
2018-07-26T04:50:21.151Z,56.70
2018-07-26T04:52:47.960Z,56.72
2018-07-26T04:55:14.643Z,55.78
2018-07-26T04:57:41.387Z,56.13
2018-07-26T05:00:08.228Z,56.47
2018-07-26T05:02:35.198Z,56.86
2018-07-26T05:05:02.711Z,55.82
2018-07-26T05:07:29.455Z,56.50
2018-07-26T05:09:56.244Z,56.29
2018-07-26T05:12:23.014Z,56.52
2018-07-26T05:14:49.815Z,56.13
2018-07-26T05:17:16.527Z,56.15
2018-07-26T05:19:43.633Z,56.14
2018-07-26T05:22:10.435Z,56.33
2018-07-26T05:24:37.979Z,55.83
2018-07-26T05:27:04.844Z,55.61
2018-07-26T05:29:31.654Z,55.39
2018-07-26T05:31:58.380Z,56.01
2018-07-26T05:34:25.138Z,55.54
2018-07-26T05:36:51.903Z,55.21
2018-07-26T05:39:18.631Z,55.73
2018-07-26T05:41:45.401Z,55.73
2018-07-26T05:44:12.123Z,54.55
2018-07-26T05:46:38.987Z,54.58
2018-07-26T05:49:05.773Z,54.34
2018-07-26T05:51:32.591Z,53.81
2018-07-26T05:53:59.363Z,53.82
2018-07-26T05:56:26.131Z,53.68
2018-07-26T05:58:52.880Z,53.74
2018-07-26T06:01:19.701Z,53.15
2018-07-26T06:03:46.447Z,52.85
2018-07-26T06:06:13.219Z,53.41
2018-07-26T06:08:39.960Z,53.82
2018-07-26T06:11:06.759Z,53.62
2018-07-26T06:13:33.546Z,51.92
2018-07-26T06:16:00.294Z,51.71
2018-07-26T06:18:27.336Z,51.26
2018-07-26T06:20:54.107Z,50.74
2018-07-26T06:23:20.867Z,50.88
2018-07-26T06:25:47.604Z,49.56
2018-07-26T06:28:14.398Z,49.65
2018-07-26T06:30:41.126Z,49.87
2018-07-26T06:33:07.893Z,50.61
2018-07-26T06:35:34.624Z,49.17
2018-07-26T06:38:01.938Z,49.78
2018-07-26T06:40:28.698Z,49.91
2018-07-26T06:42:55.469Z,48.70
2018-07-26T06:45:22.180Z,49.23
2018-07-26T06:47:49.002Z,48.19
2018-07-26T06:50:15.727Z,49.18
2018-07-26T06:52:42.511Z,49.04
2018-07-26T06:55:09.704Z,48.92
2018-07-26T06:57:36.547Z,49.29
2018-07-26T07:00:05.312Z,49.07
2018-07-26T07:02:33.192Z,49.17
2018-07-26T07:04:59.955Z,49.72
2018-07-26T07:07:26.671Z,49.40
2018-07-26T07:09:53.432Z,48.44
2018-07-26T07:12:20.454Z,48.39
2018-07-26T07:14:47.192Z,48.60
2018-07-26T07:17:13.923Z,47.54
2018-07-26T07:19:40.759Z,48.04
2018-07-26T07:22:07.591Z,47.53
2018-07-26T07:24:34.355Z,48.42
2018-07-26T07:27:02.277Z,48.37
2018-07-26T07:29:29.109Z,46.83
2018-07-26T07:31:55.923Z,47.61
2018-07-26T07:34:22.688Z,47.84
2018-07-26T07:36:49.508Z,47.68
2018-07-26T07:39:16.254Z,47.66
2018-07-26T07:41:43.067Z,46.77
2018-07-26T07:44:10.226Z,47.43
2018-07-26T07:46:37.477Z,46.94
2018-07-26T07:49:04.185Z,47.08
2018-07-26T07:51:31.307Z,47.42
2018-07-26T07:53:58.063Z,47.96
2018-07-26T07:56:24.845Z,46.96
2018-07-26T07:58:51.623Z,46.71
2018-07-26T08:01:18.388Z,47.02
2018-07-26T08:03:45.148Z,45.76
2018-07-26T08:06:11.976Z,44.85
2018-07-26T08:08:38.711Z,44.08
2018-07-26T08:11:05.488Z,43.61
2018-07-26T08:13:32.259Z,43.01
2018-07-26T08:15:59.018Z,44.05
2018-07-26T08:18:25.735Z,44.51
2018-07-26T08:20:52.503Z,44.77
2018-07-26T08:23:19.255Z,44.34
2018-07-26T08:25:46.045Z,45.56
2018-07-26T08:28:12.788Z,45.35
2018-07-26T08:30:39.562Z,44.52
2018-07-26T08:33:06.329Z,44.13
2018-07-26T08:35:33.068Z,42.70
2018-07-26T08:37:59.835Z,43.80
2018-07-26T08:40:26.595Z,43.62
2018-07-26T08:42:53.383Z,44.24
2018-07-26T08:45:20.131Z,44.97
2018-07-26T08:47:46.894Z,43.69
2018-07-26T08:50:13.683Z,44.56
2018-07-26T08:52:40.447Z,44.99
2018-07-26T08:55:07.227Z,43.84
2018-07-26T08:57:34.080Z,44.88
2018-07-26T09:00:00.897Z,43.83
2018-07-26T09:02:27.692Z,44.77
2018-07-26T09:04:54.448Z,44.33
2018-07-26T09:07:21.235Z,44.00
2018-07-26T09:09:48.036Z,44.33
2018-07-26T09:12:14.732Z,45.04
2018-07-26T09:14:41.523Z,43.94
2018-07-26T09:17:08.304Z,42.09
2018-07-26T09:19:35.071Z,41.18
2018-07-26T09:22:02.484Z,40.70
2018-07-26T09:24:29.353Z,40.08
2018-07-26T09:26:56.039Z,40.33
2018-07-26T09:29:22.846Z,39.76
2018-07-26T09:31:49.588Z,40.57
2018-07-26T09:34:16.405Z,41.04
2018-07-26T09:36:43.171Z,40.01
2018-07-26T09:39:12.237Z,39.91
2018-07-26T09:41:38.967Z,40.90
2018-07-26T09:44:05.799Z,40.92
2018-07-26T09:46:32.563Z,41.36
2018-07-26T09:48:59.327Z,40.98
2018-07-26T09:51:26.093Z,41.01
2018-07-26T09:53:52.828Z,39.87
2018-07-26T09:56:19.597Z,40.74
2018-07-26T09:58:46.429Z,40.54
2018-07-26T10:01:19.075Z,40.41
2018-07-26T10:03:45.852Z,38.77
2018-07-26T10:06:12.668Z,39.38
2018-07-26T10:08:39.606Z,39.55
2018-07-26T10:11:06.451Z,39.79
2018-07-26T10:13:33.203Z,39.09
2018-07-26T10:16:00.027Z,40.00
2018-07-26T10:18:26.688Z,39.67
2018-07-26T10:20:53.460Z,38.73
2018-07-26T10:23:20.188Z,38.50
2018-07-26T10:25:47.019Z,38.31
2018-07-26T10:28:13.766Z,38.18
2018-07-26T10:30:40.609Z,38.67
2018-07-26T10:33:07.336Z,38.04
2018-07-26T10:35:34.131Z,38.77
2018-07-26T10:38:01.488Z,39.06
2018-07-26T10:40:28.441Z,38.71
2018-07-26T10:42:55.200Z,37.64
2018-07-26T10:45:21.949Z,38.10
2018-07-26T10:47:48.735Z,37.12
2018-07-26T10:50:15.671Z,37.89
2018-07-26T10:52:42.400Z,37.37
2018-07-26T10:55:09.131Z,37.22
2018-07-26T10:57:37.096Z,36.73
2018-07-26T11:00:04.860Z,37.16
2018-07-26T11:02:31.652Z,36.67
2018-07-26T11:04:58.390Z,35.97
2018-07-26T11:07:25.219Z,36.13
2018-07-26T11:09:51.961Z,35.64
2018-07-26T11:12:19.607Z,36.59
2018-07-26T11:14:46.432Z,36.47
2018-07-26T11:17:13.192Z,35.95
2018-07-26T11:19:39.977Z,36.63
2018-07-26T11:22:06.775Z,36.00
2018-07-26T11:24:33.560Z,35.46
2018-07-26T11:27:00.352Z,34.97
2018-07-26T11:29:27.131Z,35.18
2018-07-26T11:31:53.949Z,35.22
2018-07-26T11:34:20.704Z,35.24
2018-07-26T11:36:47.460Z,35.02
2018-07-26T11:39:14.252Z,34.77
2018-07-26T11:41:40.978Z,33.85
2018-07-26T11:44:07.752Z,33.82
2018-07-26T11:46:34.502Z,35.11
2018-07-26T11:49:01.995Z,35.22
2018-07-26T11:51:28.727Z,34.57
2018-07-26T11:53:55.567Z,33.82
2018-07-26T11:56:22.337Z,34.14
2018-07-26T11:58:49.118Z,33.37
2018-07-26T12:01:15.840Z,33.14
2018-07-26T12:03:43.043Z,33.39
2018-07-26T12:06:09.775Z,33.41
2018-07-26T12:08:36.524Z,33.76
2018-07-26T12:11:03.575Z,33.62
2018-07-26T12:13:30.315Z,33.70
2018-07-26T12:15:57.132Z,32.87
2018-07-26T12:18:23.926Z,32.67
2018-07-26T12:20:50.736Z,32.67
2018-07-26T12:23:17.507Z,33.12
2018-07-26T12:25:44.296Z,33.59
2018-07-26T12:28:11.036Z,33.92
2018-07-26T12:30:37.885Z,34.52
2018-07-26T12:33:04.644Z,34.19
2018-07-26T12:35:31.463Z,33.10
2018-07-26T12:37:58.207Z,34.29
2018-07-26T12:40:25.022Z,34.18
2018-07-26T12:42:51.809Z,33.95
2018-07-26T12:45:18.772Z,33.97
2018-07-26T12:47:45.583Z,34.47
2018-07-26T12:50:12.307Z,34.85
2018-07-26T12:52:39.167Z,34.86
2018-07-26T12:55:05.915Z,35.23
2018-07-26T12:57:32.767Z,36.18
2018-07-26T12:59:59.687Z,35.52
2018-07-26T13:02:26.541Z,36.02
2018-07-26T13:04:53.269Z,36.19
2018-07-26T13:07:20.132Z,35.74
2018-07-26T13:09:46.948Z,36.30
2018-07-26T13:12:13.959Z,36.06
2018-07-26T13:14:40.988Z,36.22
2018-07-26T13:17:07.866Z,36.41
2018-07-26T13:19:34.686Z,35.04
2018-07-26T13:22:01.548Z,34.67
2018-07-26T13:24:28.583Z,34.98
2018-07-26T13:26:55.507Z,35.12
2018-07-26T13:29:22.466Z,34.87
2018-07-26T13:31:49.342Z,33.49
2018-07-26T13:34:16.158Z,33.61
2018-07-26T13:36:43.027Z,33.54
2018-07-26T13:39:11.951Z,33.28
2018-07-26T13:41:38.986Z,33.34
2018-07-26T13:44:05.919Z,33.70
2018-07-26T13:46:32.828Z,33.39
2018-07-26T13:48:59.783Z,33.78
2018-07-26T13:51:26.519Z,33.79
2018-07-26T13:53:53.459Z,34.24
2018-07-26T13:56:20.344Z,34.24
2018-07-26T13:58:47.104Z,34.28
2018-07-26T14:01:13.888Z,33.63
2018-07-26T14:03:40.732Z,34.26
2018-07-26T14:06:07.516Z,33.23
2018-07-26T14:08:34.337Z,32.26
2018-07-26T14:11:01.863Z,32.44
2018-07-26T14:13:28.668Z,32.92
2018-07-26T14:15:55.531Z,31.36
2018-07-26T14:18:22.188Z,31.18
2018-07-26T14:20:49.031Z,32.80
2018-07-26T14:23:21.466Z,32.90
2018-07-26T14:25:48.257Z,32.56
2018-07-26T14:28:15.132Z,33.04
2018-07-26T14:30:42.296Z,32.66
2018-07-26T14:33:09.044Z,33.20
2018-07-26T14:35:35.930Z,32.42
2018-07-26T14:38:02.828Z,33.86
2018-07-26T14:40:29.631Z,32.69
2018-07-26T14:42:56.404Z,32.40
2018-07-26T14:45:23.181Z,32.24
2018-07-26T14:47:51.744Z,30.76
2018-07-26T14:50:18.497Z,30.61
2018-07-26T14:52:45.731Z,31.03
2018-07-26T14:55:12.480Z,31.03
2018-07-26T14:57:39.233Z,32.36
2018-07-26T15:00:06.015Z,31.02
2018-07-26T15:02:32.796Z,31.42
2018-07-26T15:04:59.559Z,29.41
2018-07-26T15:07:26.360Z,30.86
2018-07-26T15:09:53.707Z,30.95
2018-07-26T15:12:20.512Z,30.60
2018-07-26T15:14:47.324Z,30.91
2018-07-26T15:17:14.089Z,29.46
2018-07-26T15:19:41.039Z,30.03
2018-07-26T15:22:07.900Z,28.94
2018-07-26T15:24:35.457Z,30.46
2018-07-26T15:27:02.233Z,29.69
2018-07-26T15:29:29.044Z,29.71
2018-07-26T15:31:55.831Z,29.20
2018-07-26T15:34:22.545Z,29.28
2018-07-26T15:36:49.312Z,27.15
2018-07-26T15:39:16.056Z,27.83
2018-07-26T15:41:44.049Z,28.43
2018-07-26T15:44:11.379Z,28.89
2018-07-26T15:46:38.347Z,25.97
2018-07-26T15:49:05.473Z,27.15
2018-07-26T15:51:32.307Z,28.07
2018-07-26T15:53:59.010Z,27.47
2018-07-26T15:56:25.767Z,28.76
2018-07-26T15:58:52.547Z,27.45
2018-07-26T16:01:19.307Z,26.46
2018-07-26T16:03:46.085Z,26.26
2018-07-26T16:06:12.814Z,24.32
2018-07-26T16:08:39.571Z,26.12
2018-07-26T16:11:06.384Z,26.29
2018-07-26T16:13:33.196Z,24.74
2018-07-26T16:15:59.991Z,23.59
2018-07-26T16:18:26.763Z,22.67
2018-07-26T16:20:53.732Z,23.12
2018-07-26T16:23:20.533Z,20.44
2018-07-26T16:25:47.280Z,19.04
2018-07-26T16:28:14.068Z,19.84
2018-07-26T16:30:42.186Z,20.52
2018-07-26T16:33:08.849Z,19.86
2018-07-26T16:35:35.651Z,18.69
2018-07-26T16:38:02.686Z,18.35
2018-07-26T16:40:29.509Z,18.89
2018-07-26T16:42:56.268Z,19.19
2018-07-26T16:45:23.101Z,19.38
2018-07-26T16:47:49.784Z,19.97
2018-07-26T16:50:16.606Z,20.66
2018-07-26T16:52:43.351Z,20.63
2018-07-26T16:55:10.111Z,20.52
2018-07-26T16:57:37.047Z,20.15
2018-07-26T17:00:05.679Z,20.23
2018-07-26T17:02:32.436Z,19.37
2018-07-26T17:04:59.227Z,20.00
2018-07-26T17:07:25.998Z,20.04
2018-07-26T17:09:52.768Z,19.97
2018-07-26T17:12:19.570Z,20.81
2018-07-26T17:14:46.529Z,22.13
2018-07-26T17:17:13.255Z,21.61
2018-07-26T17:19:40.038Z,21.73
2018-07-26T17:22:07.153Z,21.12
2018-07-26T17:24:33.908Z,22.49
2018-07-26T17:27:00.818Z,23.48
2018-07-26T17:29:27.749Z,24.82
2018-07-26T17:31:54.609Z,25.65
2018-07-26T17:34:21.381Z,28.31
2018-07-26T17:36:48.219Z,29.06
2018-07-26T17:39:14.956Z,29.01
2018-07-26T17:41:41.808Z,31.02
2018-07-26T17:44:08.435Z,30.81
2018-07-26T17:46:35.277Z,31.32
2018-07-26T17:49:02.618Z,31.83
2018-07-26T17:51:29.772Z,33.80
2018-07-26T17:53:56.592Z,32.17
2018-07-26T17:56:23.539Z,34.00
2018-07-26T17:58:50.589Z,34.22
2018-07-26T18:01:17.387Z,35.59
2018-07-26T18:03:44.212Z,34.47
2018-07-26T18:06:11.014Z,33.89
2018-07-26T18:08:37.816Z,34.72
2018-07-26T18:11:04.644Z,35.09
2018-07-26T18:13:31.528Z,34.99
2018-07-26T18:15:58.285Z,36.24
2018-07-26T18:18:25.074Z,36.71
2018-07-26T18:20:51.814Z,36.70
2018-07-26T18:23:18.639Z,36.19
2018-07-26T18:25:45.376Z,35.96
2018-07-26T18:28:12.136Z,37.34
2018-07-26T18:30:38.903Z,36.53
2018-07-26T18:33:05.687Z,38.01
2018-07-26T18:35:32.445Z,35.58
2018-07-26T18:37:59.212Z,36.63
2018-07-26T18:40:26.208Z,36.05
2018-07-26T18:42:52.965Z,36.99
2018-07-26T18:45:21.166Z,36.64
2018-07-26T18:47:47.946Z,36.42
2018-07-26T18:50:14.727Z,36.20
2018-07-26T18:52:41.552Z,37.69
2018-07-26T18:55:09.480Z,36.53
2018-07-26T18:57:36.220Z,38.09
2018-07-26T19:00:04.376Z,37.37
2018-07-26T19:02:31.112Z,37.81
2018-07-26T19:04:57.876Z,38.01
2018-07-26T19:07:24.647Z,39.17
2018-07-26T19:09:51.964Z,39.22
2018-07-26T19:12:18.711Z,38.43
2018-07-26T19:14:45.548Z,38.37
2018-07-26T19:17:12.280Z,38.88
2018-07-26T19:19:39.064Z,38.93
2018-07-26T19:22:05.910Z,39.19
2018-07-26T19:24:32.667Z,39.56
2018-07-26T19:26:59.424Z,39.87
2018-07-26T19:29:26.409Z,39.60
2018-07-26T19:31:53.196Z,40.15
2018-07-26T19:34:19.955Z,39.94
2018-07-26T19:36:46.712Z,40.21
2018-07-26T19:39:13.468Z,39.59
2018-07-26T19:41:40.988Z,40.31
2018-07-26T19:44:07.730Z,40.42
2018-07-26T19:46:36.518Z,40.91
2018-07-26T19:49:03.468Z,40.98
2018-07-26T19:51:30.263Z,40.83
2018-07-26T19:53:57.016Z,41.19
2018-07-26T19:56:23.884Z,41.46
2018-07-26T19:58:50.632Z,41.46
2018-07-26T20:01:17.549Z,41.70
2018-07-26T20:03:45.178Z,40.82
2018-07-26T20:06:11.349Z,41.18
2018-07-26T20:08:38.364Z,41.59
2018-07-26T20:11:05.350Z,40.51
2018-07-26T20:13:32.051Z,40.47
2018-07-26T20:15:58.856Z,40.60
2018-07-26T20:18:25.634Z,41.22
2018-07-26T20:20:52.635Z,40.69
2018-07-26T20:23:19.404Z,40.73
2018-07-26T20:25:46.668Z,40.87
2018-07-26T20:28:13.965Z,41.28
2018-07-26T20:30:43.588Z,41.20
2018-07-26T20:33:10.387Z,41.91
2018-07-26T20:35:37.765Z,41.99
2018-07-26T20:38:05.156Z,42.21
2018-07-26T20:40:32.028Z,42.55
2018-07-26T20:42:59.076Z,42.20
2018-07-26T20:45:25.924Z,42.83
2018-07-26T20:47:53.359Z,42.93
2018-07-26T20:50:23.964Z,41.88
2018-07-26T20:52:51.885Z,42.89
2018-07-26T20:55:19.006Z,42.72
2018-07-26T20:57:45.853Z,42.44
2018-07-26T21:00:15.371Z,43.03
2018-07-26T21:02:42.938Z,42.17
2018-07-26T21:05:09.923Z,42.27
2018-07-26T21:07:36.859Z,42.38
2018-07-26T21:10:04.643Z,42.01
2018-07-26T21:12:31.381Z,42.96
2018-07-26T21:14:58.137Z,43.14
2018-07-26T21:17:24.864Z,43.41
2018-07-26T21:19:51.623Z,43.38
2018-07-26T21:22:18.388Z,42.59
2018-07-26T21:24:45.151Z,43.41
2018-07-26T21:27:11.884Z,42.74
2018-07-26T21:29:38.646Z,43.67
2018-07-26T21:32:05.481Z,43.66
2018-07-26T21:34:32.259Z,43.14
2018-07-26T21:36:59.375Z,43.20
2018-07-26T21:39:26.144Z,43.99
2018-07-26T21:41:52.890Z,44.17
2018-07-26T21:44:19.656Z,44.21
2018-07-26T21:46:46.396Z,44.19
2018-07-26T21:49:13.212Z,43.80
2018-07-26T21:51:39.923Z,44.65
2018-07-26T21:54:06.673Z,44.59
2018-07-26T21:56:33.448Z,44.60
2018-07-26T21:59:00.224Z,44.24
2018-07-26T22:01:26.997Z,44.39
2018-07-26T22:03:53.773Z,45.20
2018-07-26T22:06:20.555Z,45.00
2018-07-26T22:08:47.347Z,45.66
2018-07-26T22:11:14.051Z,45.59
2018-07-26T22:13:40.811Z,45.63
2018-07-26T22:16:07.699Z,45.56
2018-07-26T22:18:34.507Z,45.69
2018-07-26T22:21:02.141Z,45.14
2018-07-26T22:23:28.904Z,44.89
2018-07-26T22:25:55.677Z,45.17
2018-07-26T22:28:22.410Z,45.91
2018-07-26T22:30:49.247Z,46.47
2018-07-26T22:33:15.976Z,46.61
2018-07-26T22:35:43.188Z,46.38
2018-07-26T22:38:10.471Z,47.00
2018-07-26T22:40:37.208Z,46.04
2018-07-26T22:43:04.299Z,46.28
2018-07-26T22:45:31.039Z,47.30
2018-07-26T22:47:57.876Z,47.43
2018-07-26T22:50:24.608Z,47.74
2018-07-26T22:52:51.464Z,47.27
2018-07-26T22:55:18.207Z,47.92
2018-07-26T22:57:44.980Z,48.61
2018-07-26T23:00:11.766Z,47.94
2018-07-26T23:02:38.513Z,48.58
2018-07-26T23:05:05.311Z,48.87
2018-07-26T23:07:32.123Z,49.04
2018-07-26T23:09:58.880Z,49.46
2018-07-26T23:12:25.820Z,49.48
2018-07-26T23:14:52.565Z,48.87
2018-07-26T23:17:19.420Z,48.86
2018-07-26T23:19:46.214Z,48.90
2018-07-26T23:22:12.967Z,49.86
2018-07-26T23:24:39.743Z,49.76
2018-07-26T23:27:06.487Z,48.95
2018-07-26T23:29:33.271Z,49.76
2018-07-26T23:32:00.045Z,49.84
2018-07-26T23:34:26.817Z,49.69
2018-07-26T23:36:53.551Z,49.68
2018-07-26T23:39:20.307Z,50.44
2018-07-26T23:41:47.047Z,50.29
2018-07-26T23:44:13.816Z,50.08
2018-07-26T23:46:40.547Z,49.25
2018-07-26T23:49:07.311Z,49.92
2018-07-26T23:51:34.043Z,49.34
2018-07-26T23:54:01.628Z,50.30
2018-07-26T23:56:28.344Z,50.29
2018-07-26T23:58:55.736Z,50.90
